createdAt,value
2018-04-30T00:00:51.053Z,74.97
2018-04-30T00:01:51.056Z,75.18
2018-04-30T00:02:51.117Z,74.89
2018-04-30T00:03:50.990Z,74.92
2018-04-30T00:04:51.057Z,74.89
2018-04-30T00:05:50.986Z,75.57
2018-04-30T00:06:51.056Z,75.96
2018-04-30T00:07:50.985Z,75.94
2018-04-30T00:08:51.064Z,75.55
2018-04-30T00:09:51.051Z,75.68
2018-04-30T00:10:51.052Z,75.57
2018-04-30T00:11:50.982Z,75.86
2018-04-30T00:12:51.051Z,76.28
2018-04-30T00:13:50.979Z,76.12
2018-04-30T00:14:51.052Z,76.28
2018-04-30T00:15:50.989Z,76.54
2018-04-30T00:16:51.004Z,76.65
2018-04-30T00:17:50.965Z,75.05
2018-04-30T00:18:50.984Z,74.99
2018-04-30T00:19:51.029Z,74.97
2018-04-30T00:20:50.979Z,74.92
2018-04-30T00:21:51.031Z,74.71
2018-04-30T00:22:51.071Z,74.87
2018-04-30T00:23:50.985Z,74.71
2018-04-30T00:24:51.065Z,74.66
2018-04-30T00:25:51.092Z,74.08
2018-04-30T00:26:51.081Z,74.08
2018-04-30T00:27:51.049Z,73.45
2018-04-30T00:28:50.994Z,73.27
2018-04-30T00:29:51.098Z,72.38
2018-04-30T00:30:51.066Z,72.33
2018-04-30T00:31:51.061Z,71.89
2018-04-30T00:32:51.060Z,71.67
2018-04-30T00:33:50.980Z,71.62
2018-04-30T00:34:51.011Z,71.49
2018-04-30T00:35:51.064Z,71.70
2018-04-30T00:36:51.071Z,71.75
2018-04-30T00:37:51.076Z,72.07
2018-04-30T00:38:51.069Z,71.15
2018-04-30T00:39:50.995Z,71.07
2018-04-30T00:40:51.108Z,71.10
2018-04-30T00:41:51.019Z,71.42
2018-04-30T00:42:51.068Z,71.21
2018-04-30T00:43:51.032Z,71.03
2018-04-30T00:44:51.070Z,70.97
2018-04-30T00:45:51.000Z,71.26
2018-04-30T00:46:51.073Z,71.34
2018-04-30T00:47:51.074Z,71.44
2018-04-30T00:48:51.005Z,71.49
2018-04-30T00:49:51.160Z,71.73
2018-04-30T00:50:51.140Z,71.75
2018-04-30T00:51:51.104Z,72.12
2018-04-30T00:52:51.055Z,72.07
2018-04-30T00:53:51.082Z,72.14
2018-04-30T00:54:51.020Z,72.36
2018-04-30T00:55:51.119Z,72.33
2018-04-30T00:56:51.084Z,72.48
2018-04-30T00:57:51.109Z,72.46
2018-04-30T00:58:51.022Z,72.41
2018-04-30T00:59:51.007Z,72.67
2018-04-30T01:00:51.114Z,72.80
2018-04-30T01:01:51.089Z,72.88
2018-04-30T01:02:51.057Z,72.64
2018-04-30T01:03:51.090Z,72.53
2018-04-30T01:04:51.028Z,72.95
2018-04-30T01:05:50.995Z,72.98
2018-04-30T01:06:51.122Z,72.67
2018-04-30T01:07:50.992Z,73.14
2018-04-30T01:08:51.118Z,73.66
2018-04-30T01:09:51.112Z,73.53
2018-04-30T01:10:50.968Z,73.79
2018-04-30T01:11:51.081Z,73.89
2018-04-30T01:12:51.085Z,73.93
2018-04-30T01:13:51.018Z,74.08
2018-04-30T01:14:51.089Z,74.42
2018-04-30T01:15:51.056Z,74.84
2018-04-30T01:16:51.020Z,75.13
2018-04-30T01:17:51.005Z,75.02
2018-04-30T01:18:51.004Z,74.21
2018-04-30T01:19:51.008Z,74.84
2018-04-30T01:20:51.074Z,75.26
2018-04-30T01:21:51.059Z,74.52
2018-04-30T01:22:51.038Z,74.50
2018-04-30T01:23:51.019Z,74.84
2018-04-30T01:24:51.127Z,75.02
2018-04-30T01:25:51.063Z,74.97
2018-04-30T01:26:51.081Z,74.97
2018-04-30T01:27:51.067Z,75.07
2018-04-30T01:28:51.137Z,74.94
2018-04-30T01:29:51.125Z,74.81
2018-04-30T01:30:51.110Z,74.84
2018-04-30T01:31:51.038Z,75.37
2018-04-30T01:32:51.113Z,74.89
2018-04-30T01:33:51.041Z,74.34
2018-04-30T01:34:51.044Z,73.87
2018-04-30T01:35:51.114Z,74.18
2018-04-30T01:36:51.113Z,73.79
2018-04-30T01:37:51.108Z,74.00
2018-04-30T01:38:51.044Z,74.13
2018-04-30T01:39:51.115Z,73.95
2018-04-30T01:40:51.136Z,74.03
2018-04-30T01:41:51.067Z,74.29
2018-04-30T01:42:51.158Z,74.08
2018-04-30T01:43:51.092Z,74.03
2018-04-30T01:44:51.016Z,73.95
2018-04-30T01:45:51.121Z,73.82
2018-04-30T01:46:51.140Z,74.00
2018-04-30T01:47:51.092Z,74.18
2018-04-30T01:48:51.163Z,74.47
2018-04-30T01:49:51.075Z,74.47
2018-04-30T01:50:51.114Z,74.66
2018-04-30T01:51:51.040Z,74.66
2018-04-30T01:52:51.115Z,74.71
2018-04-30T01:53:51.123Z,75.02
2018-04-30T01:54:51.041Z,75.23
2018-04-30T01:55:51.048Z,75.10
2018-04-30T01:56:51.119Z,75.29
2018-04-30T01:57:50.994Z,75.41
2018-04-30T01:58:51.114Z,75.41
2018-04-30T01:59:51.120Z,75.47
2018-04-30T02:00:51.089Z,75.89
2018-04-30T02:01:51.033Z,76.12
2018-04-30T02:02:51.053Z,76.41
2018-04-30T02:03:51.116Z,76.65
2018-04-30T02:04:51.123Z,76.97
2018-04-30T02:05:51.074Z,77.23
2018-04-30T02:06:51.051Z,77.36
2018-04-30T02:07:51.037Z,77.83
2018-04-30T02:08:51.077Z,78.05
2018-04-30T02:09:51.126Z,78.20
2018-04-30T02:10:51.100Z,78.36
2018-04-30T02:11:51.160Z,78.28
2018-04-30T02:12:51.131Z,78.33
2018-04-30T02:13:51.063Z,78.54
2018-04-30T02:14:51.133Z,78.67
2018-04-30T02:15:51.147Z,78.75
2018-04-30T02:16:51.092Z,78.67
2018-04-30T02:17:51.163Z,78.78
2018-04-30T02:18:51.074Z,78.97
2018-04-30T02:19:51.038Z,78.75
2018-04-30T02:20:51.113Z,78.62
2018-04-30T02:21:51.116Z,78.75
2018-04-30T02:22:51.170Z,78.81
2018-04-30T02:23:51.136Z,78.99
2018-04-30T02:24:51.067Z,79.25
2018-04-30T02:25:51.114Z,79.39
2018-04-30T02:26:51.142Z,79.75
2018-04-30T02:27:51.168Z,79.83
2018-04-30T02:28:51.114Z,80.13
2018-04-30T02:29:51.088Z,80.33
2018-04-30T02:30:51.169Z,80.52
2018-04-30T02:31:51.178Z,80.84
2018-04-30T02:32:51.145Z,80.94
2018-04-30T02:33:51.059Z,81.32
2018-04-30T02:34:51.090Z,81.45
2018-04-30T02:35:51.071Z,81.58
2018-04-30T02:36:51.114Z,81.66
2018-04-30T02:37:51.066Z,81.74
2018-04-30T02:38:51.109Z,82.03
2018-04-30T02:39:51.106Z,82.40
2018-04-30T02:40:51.130Z,82.48
2018-04-30T02:41:51.093Z,82.61
2018-04-30T02:42:51.116Z,82.72
2018-04-30T02:43:51.177Z,82.77
2018-04-30T02:44:51.155Z,82.72
2018-04-30T02:45:51.182Z,82.67
2018-04-30T02:46:51.141Z,82.67
2018-04-30T02:47:51.190Z,82.88
2018-04-30T02:48:51.187Z,82.93
2018-04-30T02:49:51.187Z,82.96
2018-04-30T02:50:51.089Z,83.06
2018-04-30T02:51:51.090Z,83.25
2018-04-30T02:52:51.166Z,83.25
2018-04-30T02:53:51.166Z,83.40
2018-04-30T02:54:51.174Z,83.54
2018-04-30T02:55:51.166Z,83.62
2018-04-30T02:56:51.094Z,83.73
2018-04-30T02:57:51.170Z,83.75
2018-04-30T02:58:51.179Z,83.97
2018-04-30T02:59:51.167Z,84.05
2018-04-30T03:00:51.191Z,84.09
2018-04-30T03:01:51.128Z,84.17
2018-04-30T03:02:51.224Z,84.05
2018-04-30T03:03:51.198Z,84.15
2018-04-30T03:04:51.145Z,84.28
2018-04-30T03:05:51.194Z,84.36
2018-04-30T03:06:51.168Z,84.31
2018-04-30T03:07:51.200Z,84.31
2018-04-30T03:08:51.233Z,84.31
2018-04-30T03:09:51.193Z,84.31
2018-04-30T03:10:51.175Z,84.39
2018-04-30T03:11:51.104Z,84.52
2018-04-30T03:12:51.105Z,84.66
2018-04-30T03:13:51.180Z,84.71
2018-04-30T03:14:51.108Z,84.92
2018-04-30T03:15:51.120Z,85.05
2018-04-30T03:16:51.179Z,85.46
2018-04-30T03:17:51.110Z,85.77
2018-04-30T03:18:51.182Z,86.09
2018-04-30T03:19:51.108Z,86.28
2018-04-30T03:20:51.183Z,86.41
2018-04-30T03:21:51.184Z,86.44
2018-04-30T03:22:51.127Z,86.65
2018-04-30T03:23:51.113Z,86.79
2018-04-30T03:24:51.183Z,87.00
2018-04-30T03:25:51.186Z,87.18
2018-04-30T03:26:51.185Z,87.21
2018-04-30T03:27:51.185Z,87.16
2018-04-30T03:28:51.116Z,87.32
2018-04-30T03:29:51.195Z,87.51
2018-04-30T03:30:51.168Z,87.69
2018-04-30T03:31:51.144Z,87.90
2018-04-30T03:32:51.211Z,88.12
2018-04-30T03:33:51.161Z,88.31
2018-04-30T03:34:51.191Z,88.46
2018-04-30T03:35:51.167Z,88.52
2018-04-30T03:36:51.196Z,88.68
2018-04-30T03:37:51.252Z,88.89
2018-04-30T03:38:51.211Z,89.08
2018-04-30T03:39:51.158Z,89.27
2018-04-30T03:40:51.177Z,89.48
2018-04-30T03:41:51.090Z,89.51
2018-04-30T03:42:51.127Z,89.64
2018-04-30T03:43:51.174Z,89.67
2018-04-30T03:44:51.132Z,89.75
2018-04-30T03:45:51.150Z,89.88
2018-04-30T03:46:51.087Z,89.94
2018-04-30T03:47:51.091Z,90.07
2018-04-30T03:48:51.183Z,90.34
2018-04-30T03:49:51.179Z,90.50
2018-04-30T03:50:51.108Z,90.61
2018-04-30T03:51:51.190Z,90.55
2018-04-30T03:52:51.103Z,90.45
2018-04-30T03:53:51.077Z,90.28
2018-04-30T03:54:51.188Z,90.20
2018-04-30T03:55:51.191Z,90.20
2018-04-30T03:56:51.224Z,90.42
2018-04-30T03:57:51.182Z,90.63
2018-04-30T03:58:51.147Z,90.74
2018-04-30T03:59:51.140Z,90.82
2018-04-30T04:00:51.214Z,90.88
2018-04-30T04:01:51.220Z,90.93
2018-04-30T04:02:51.133Z,91.09
2018-04-30T04:03:51.213Z,91.01
2018-04-30T04:04:51.210Z,91.38
2018-04-30T04:05:51.138Z,91.92
2018-04-30T04:06:51.140Z,92.14
2018-04-30T04:07:51.141Z,92.11
2018-04-30T04:08:51.211Z,92.11
2018-04-30T04:09:51.142Z,92.16
2018-04-30T04:10:51.142Z,92.30
2018-04-30T04:11:51.178Z,92.30
2018-04-30T04:12:51.129Z,92.40
2018-04-30T04:13:51.209Z,92.54
2018-04-30T04:14:51.210Z,92.57
2018-04-30T04:15:51.234Z,92.78
2018-04-30T04:16:51.176Z,93.10
2018-04-30T04:17:51.194Z,93.24
2018-04-30T04:18:51.136Z,93.51
2018-04-30T04:19:51.181Z,93.56
2018-04-30T04:20:51.243Z,93.37
2018-04-30T04:21:51.212Z,93.10
2018-04-30T04:22:51.188Z,92.97
2018-04-30T04:23:51.154Z,92.86
2018-04-30T04:24:51.271Z,92.81
2018-04-30T04:25:51.176Z,92.73
2018-04-30T04:26:51.233Z,92.43
2018-04-30T04:27:51.124Z,92.08
2018-04-30T04:28:51.254Z,91.49
2018-04-30T04:29:51.138Z,91.01
2018-04-30T04:30:51.123Z,90.18
2018-04-30T04:31:51.217Z,89.56
2018-04-30T04:32:51.219Z,88.92
2018-04-30T04:33:51.197Z,88.46
2018-04-30T04:34:51.248Z,88.33
2018-04-30T04:35:51.262Z,88.25
2018-04-30T04:36:51.254Z,87.93
2018-04-30T04:37:51.256Z,87.69
2018-04-30T04:38:51.180Z,87.67
2018-04-30T04:39:51.194Z,87.59
2018-04-30T04:40:51.194Z,87.45
2018-04-30T04:41:51.253Z,87.48
2018-04-30T04:42:51.261Z,87.53
2018-04-30T04:43:51.206Z,87.51
2018-04-30T04:44:51.147Z,87.56
2018-04-30T04:45:51.307Z,87.67
2018-04-30T04:46:51.192Z,87.69
2018-04-30T04:47:51.254Z,87.85
2018-04-30T04:48:51.230Z,87.96
2018-04-30T04:49:51.273Z,88.01
2018-04-30T04:50:51.208Z,88.09
2018-04-30T04:51:51.194Z,88.17
2018-04-30T04:52:51.264Z,88.23
2018-04-30T04:53:51.203Z,88.23
2018-04-30T04:54:51.230Z,88.33
2018-04-30T04:55:51.277Z,88.36
2018-04-30T04:56:51.211Z,88.33
2018-04-30T04:57:51.205Z,88.39
2018-04-30T04:58:51.210Z,88.50
2018-04-30T04:59:51.196Z,88.46
2018-04-30T05:00:51.239Z,88.46
2018-04-30T05:01:51.217Z,88.44
2018-04-30T05:02:51.196Z,88.46
2018-04-30T05:03:51.209Z,88.41
2018-04-30T05:04:51.269Z,88.36
2018-04-30T05:05:51.179Z,87.90
2018-04-30T05:06:51.147Z,87.77
2018-04-30T05:07:51.303Z,87.64
2018-04-30T05:08:51.205Z,87.02
2018-04-30T05:09:51.163Z,86.97
2018-04-30T05:10:51.314Z,87.02
2018-04-30T05:11:51.245Z,86.60
2018-04-30T05:12:51.146Z,85.93
2018-04-30T05:13:51.247Z,85.80
2018-04-30T05:14:51.269Z,85.69
2018-04-30T05:15:51.243Z,85.32
2018-04-30T05:16:51.275Z,85.21
2018-04-30T05:17:51.250Z,85.11
2018-04-30T05:18:51.279Z,84.81
2018-04-30T05:19:51.267Z,85.00
2018-04-30T05:20:51.178Z,85.08
2018-04-30T05:21:51.244Z,84.71
2018-04-30T05:22:51.278Z,84.36
2018-04-30T05:23:51.171Z,84.17
2018-04-30T05:24:51.218Z,84.31
2018-04-30T05:25:51.230Z,83.70
2018-04-30T05:26:51.229Z,83.06
2018-04-30T05:27:51.333Z,83.09
2018-04-30T05:28:51.227Z,82.85
2018-04-30T05:29:51.236Z,82.75
2018-04-30T05:30:51.220Z,82.11
2018-04-30T05:31:51.235Z,81.76
2018-04-30T05:32:51.230Z,81.29
2018-04-30T05:33:51.294Z,81.21
2018-04-30T05:34:51.182Z,80.65
2018-04-30T05:35:51.195Z,80.63
2018-04-30T05:36:51.164Z,80.87
2018-04-30T05:37:51.182Z,81.18
2018-04-30T05:38:51.243Z,80.55
2018-04-30T05:39:51.230Z,79.91
2018-04-30T05:40:51.265Z,80.15
2018-04-30T05:41:51.197Z,79.49
2018-04-30T05:42:51.200Z,79.60
2018-04-30T05:43:51.204Z,79.55
2018-04-30T05:44:51.223Z,80.23
2018-04-30T05:45:51.270Z,79.55
2018-04-30T05:46:51.198Z,78.99
2018-04-30T05:47:51.202Z,79.49
2018-04-30T05:48:51.269Z,79.02
2018-04-30T05:49:51.209Z,78.39
2018-04-30T05:50:51.264Z,78.75
2018-04-30T05:51:51.236Z,79.10
2018-04-30T05:52:51.307Z,79.15
2018-04-30T05:53:51.241Z,79.23
2018-04-30T05:54:51.214Z,79.07
2018-04-30T05:55:51.247Z,79.28
2018-04-30T05:56:51.294Z,79.36
2018-04-30T05:57:51.273Z,79.71
2018-04-30T05:58:51.344Z,79.83
2018-04-30T05:59:51.244Z,80.05
2018-04-30T06:00:51.278Z,79.71
2018-04-30T06:01:51.210Z,78.97
2018-04-30T06:02:51.282Z,79.41
2018-04-30T06:03:51.210Z,79.07
2018-04-30T06:04:51.210Z,79.25
2018-04-30T06:05:51.280Z,78.83
2018-04-30T06:06:51.233Z,78.91
2018-04-30T06:07:51.280Z,78.86
2018-04-30T06:08:51.210Z,78.91
2018-04-30T06:09:51.285Z,78.78
2018-04-30T06:10:51.271Z,79.15
2018-04-30T06:11:51.223Z,79.07
2018-04-30T06:12:51.255Z,78.91
2018-04-30T06:13:51.265Z,78.57
2018-04-30T06:14:51.187Z,78.65
2018-04-30T06:15:51.245Z,78.75
2018-04-30T06:16:51.188Z,78.94
2018-04-30T06:17:51.226Z,79.13
2018-04-30T06:18:51.186Z,79.23
2018-04-30T06:19:51.270Z,79.25
2018-04-30T06:20:51.288Z,79.31
2018-04-30T06:21:51.292Z,78.59
2018-04-30T06:22:51.311Z,78.31
2018-04-30T06:23:51.318Z,78.89
2018-04-30T06:24:51.291Z,78.81
2018-04-30T06:25:51.229Z,79.47
2018-04-30T06:26:51.332Z,78.94
2018-04-30T06:27:51.223Z,79.20
2018-04-30T06:28:51.232Z,79.91
2018-04-30T06:29:51.175Z,79.41
2018-04-30T06:30:51.317Z,79.65
2018-04-30T06:31:51.336Z,79.75
2018-04-30T06:32:51.323Z,79.05
2018-04-30T06:33:51.277Z,77.36
2018-04-30T06:34:51.275Z,77.36
2018-04-30T06:35:51.360Z,77.51
2018-04-30T06:36:51.317Z,77.78
2018-04-30T06:37:51.278Z,77.41
2018-04-30T06:38:51.280Z,78.39
2018-04-30T06:39:51.224Z,78.05
2018-04-30T06:40:51.328Z,77.81
2018-04-30T06:41:51.263Z,78.20
2018-04-30T06:42:51.273Z,76.41
2018-04-30T06:43:51.266Z,76.18
2018-04-30T06:44:51.275Z,76.26
2018-04-30T06:45:51.271Z,75.55
2018-04-30T06:46:51.282Z,75.94
2018-04-30T06:47:51.212Z,75.62
2018-04-30T06:48:51.326Z,75.92
2018-04-30T06:49:51.341Z,75.94
2018-04-30T06:50:51.301Z,76.44
2018-04-30T06:51:51.309Z,75.92
2018-04-30T06:52:51.311Z,75.73
2018-04-30T06:53:51.229Z,75.81
2018-04-30T06:54:51.327Z,76.02
2018-04-30T06:55:51.272Z,76.23
2018-04-30T06:56:51.282Z,76.26
2018-04-30T06:57:51.218Z,76.34
2018-04-30T06:58:51.237Z,76.15
2018-04-30T06:59:51.291Z,76.10
2018-04-30T07:00:51.283Z,76.49
2018-04-30T07:01:51.315Z,76.73
2018-04-30T07:02:51.316Z,76.86
2018-04-30T07:03:51.216Z,76.52
2018-04-30T07:04:51.355Z,76.70
2018-04-30T07:05:51.239Z,76.91
2018-04-30T07:06:51.300Z,76.89
2018-04-30T07:07:51.296Z,76.52
2018-04-30T07:08:51.281Z,77.04
2018-04-30T07:09:51.380Z,76.62
2018-04-30T07:10:51.299Z,76.34
2018-04-30T07:11:51.323Z,76.44
2018-04-30T07:12:51.254Z,76.52
2018-04-30T07:13:51.336Z,76.46
2018-04-30T07:14:51.258Z,76.78
2018-04-30T07:15:51.329Z,76.54
2018-04-30T07:16:51.255Z,76.20
2018-04-30T07:17:51.327Z,76.44
2018-04-30T07:18:51.258Z,76.67
2018-04-30T07:19:51.325Z,76.12
2018-04-30T07:20:51.259Z,75.92
2018-04-30T07:21:51.332Z,76.46
2018-04-30T07:22:51.336Z,76.99
2018-04-30T07:23:51.273Z,75.94
2018-04-30T07:24:51.328Z,75.55
2018-04-30T07:25:51.262Z,75.10
2018-04-30T07:26:51.266Z,74.47
2018-04-30T07:27:51.378Z,73.89
2018-04-30T07:28:51.268Z,73.22
2018-04-30T07:29:51.347Z,73.89
2018-04-30T07:30:51.267Z,73.87
2018-04-30T07:31:51.267Z,73.87
2018-04-30T07:32:51.264Z,73.19
2018-04-30T07:33:51.336Z,73.42
2018-04-30T07:34:51.338Z,72.88
2018-04-30T07:35:51.272Z,72.59
2018-04-30T07:36:51.337Z,72.28
2018-04-30T07:37:51.274Z,73.03
2018-04-30T07:38:51.340Z,73.06
2018-04-30T07:39:51.343Z,72.43
2018-04-30T07:40:51.273Z,72.04
2018-04-30T07:41:51.197Z,71.78
2018-04-30T07:42:51.293Z,70.79
2018-04-30T07:43:51.291Z,71.10
2018-04-30T07:44:51.278Z,71.70
2018-04-30T07:45:51.251Z,72.33
2018-04-30T07:46:51.254Z,71.70
2018-04-30T07:47:51.243Z,71.05
2018-04-30T07:48:51.300Z,71.78
2018-04-30T07:49:51.294Z,71.42
2018-04-30T07:50:51.247Z,70.40
2018-04-30T07:51:51.308Z,70.21
2018-04-30T07:52:51.280Z,70.68
2018-04-30T07:53:51.279Z,70.45
2018-04-30T07:54:51.370Z,70.01
2018-04-30T07:55:51.281Z,70.76
2018-04-30T07:56:51.351Z,69.93
2018-04-30T07:57:51.350Z,69.96
2018-04-30T07:58:51.315Z,69.93
2018-04-30T07:59:51.296Z,69.85
2018-04-30T08:00:51.283Z,68.97
2018-04-30T08:01:51.253Z,71.18
2018-04-30T08:02:51.321Z,70.01
2018-04-30T08:03:51.375Z,70.29
2018-04-30T08:04:51.358Z,69.15
2018-04-30T08:05:51.353Z,69.88
2018-04-30T08:06:51.393Z,70.40
2018-04-30T08:07:51.377Z,70.32
2018-04-30T08:08:51.329Z,69.65
2018-04-30T08:09:51.388Z,69.02
2018-04-30T08:10:51.386Z,69.44
2018-04-30T08:11:51.346Z,68.81
2018-04-30T08:12:51.377Z,69.05
2018-04-30T08:13:51.323Z,69.20
2018-04-30T08:14:51.496Z,69.51
2018-04-30T08:15:51.365Z,69.98
2018-04-30T08:16:51.383Z,70.19
2018-04-30T08:17:51.265Z,69.70
2018-04-30T08:18:51.335Z,69.70
2018-04-30T08:19:51.395Z,70.74
2018-04-30T08:20:51.264Z,72.07
2018-04-30T08:21:51.291Z,71.31
2018-04-30T08:22:51.405Z,71.21
2018-04-30T08:23:51.409Z,71.36
2018-04-30T08:24:51.404Z,70.92
2018-04-30T08:25:51.328Z,71.23
2018-04-30T08:26:51.409Z,71.83
2018-04-30T08:27:51.403Z,70.92
2018-04-30T08:28:51.333Z,71.18
2018-04-30T08:29:51.350Z,70.95
2018-04-30T08:30:51.268Z,69.77
2018-04-30T08:31:51.312Z,67.67
2018-04-30T08:32:51.238Z,67.49
2018-04-30T08:33:51.257Z,67.10
2018-04-30T08:34:51.280Z,67.31
2018-04-30T08:35:51.280Z,67.67
2018-04-30T08:36:51.358Z,68.19
2018-04-30T08:37:51.239Z,68.06
2018-04-30T08:38:51.279Z,67.93
2018-04-30T08:39:51.327Z,66.79
2018-04-30T08:40:51.264Z,66.56
2018-04-30T08:41:51.380Z,65.26
2018-04-30T08:42:51.352Z,64.38
2018-04-30T08:43:51.413Z,64.49
2018-04-30T08:44:51.453Z,64.34
2018-04-30T08:45:51.344Z,65.01
2018-04-30T08:46:51.411Z,64.78
2018-04-30T08:47:51.384Z,64.49
2018-04-30T08:48:51.362Z,64.46
2018-04-30T08:49:51.296Z,65.16
2018-04-30T08:50:51.380Z,65.53
2018-04-30T08:51:51.271Z,65.58
2018-04-30T08:52:51.258Z,64.26
2018-04-30T08:53:51.323Z,65.34
2018-04-30T08:54:51.370Z,66.04
2018-04-30T08:55:51.390Z,67.25
2018-04-30T08:56:51.369Z,67.31
2018-04-30T08:57:51.344Z,67.80
2018-04-30T08:58:51.312Z,67.31
2018-04-30T08:59:51.377Z,67.88
2018-04-30T09:00:51.327Z,67.91
2018-04-30T09:01:51.336Z,67.88
2018-04-30T09:02:51.387Z,68.45
2018-04-30T09:03:51.346Z,67.96
2018-04-30T09:04:51.348Z,67.62
2018-04-30T09:05:51.264Z,68.14
2018-04-30T09:06:51.285Z,68.32
2018-04-30T09:07:51.394Z,67.98
2018-04-30T09:08:51.263Z,67.39
2018-04-30T09:09:51.389Z,68.06
2018-04-30T09:10:51.395Z,68.50
2018-04-30T09:11:51.332Z,68.76
2018-04-30T09:12:51.335Z,68.97
2018-04-30T09:13:51.331Z,69.10
2018-04-30T09:14:51.417Z,68.45
2018-04-30T09:15:51.334Z,67.75
2018-04-30T09:16:51.346Z,67.64
2018-04-30T09:17:51.405Z,68.16
2018-04-30T09:18:51.344Z,67.49
2018-04-30T09:19:51.403Z,67.46
2018-04-30T09:20:51.333Z,67.41
2018-04-30T09:21:51.371Z,66.58
2018-04-30T09:22:51.399Z,66.69
2018-04-30T09:23:51.425Z,67.88
2018-04-30T09:24:51.442Z,67.75
2018-04-30T09:25:51.327Z,66.22
2018-04-30T09:26:51.445Z,67.64
2018-04-30T09:27:51.405Z,67.41
2018-04-30T09:28:51.315Z,67.52
2018-04-30T09:29:51.320Z,67.62
2018-04-30T09:30:51.317Z,67.75
2018-04-30T09:31:51.406Z,66.95
2018-04-30T09:32:51.315Z,66.74
2018-04-30T09:33:51.409Z,66.30
2018-04-30T09:34:51.401Z,66.64
2018-04-30T09:35:51.321Z,67.18
2018-04-30T09:36:51.408Z,67.33
2018-04-30T09:37:51.401Z,66.27
2018-04-30T09:38:51.334Z,67.28
2018-04-30T09:39:51.343Z,66.30
2018-04-30T09:40:51.335Z,66.09
2018-04-30T09:41:51.412Z,66.69
2018-04-30T09:42:51.317Z,66.45
2018-04-30T09:43:51.323Z,66.53
2018-04-30T09:44:51.286Z,66.01
2018-04-30T09:45:51.288Z,66.64
2018-04-30T09:46:51.325Z,67.00
2018-04-30T09:47:51.327Z,66.09
2018-04-30T09:48:51.409Z,66.53
2018-04-30T09:49:51.423Z,66.40
2018-04-30T09:50:51.417Z,66.27
2018-04-30T09:51:51.423Z,66.53
2018-04-30T09:52:51.425Z,66.97
2018-04-30T09:53:51.328Z,66.22
2018-04-30T09:54:51.465Z,66.22
2018-04-30T09:55:51.460Z,66.12
2018-04-30T09:56:51.392Z,66.17
2018-04-30T09:57:51.369Z,66.40
2018-04-30T09:58:51.396Z,66.66
2018-04-30T09:59:51.467Z,66.27
2018-04-30T10:00:51.399Z,66.40
2018-04-30T10:01:51.394Z,66.56
2018-04-30T10:02:51.431Z,66.77
2018-04-30T10:03:51.338Z,67.20
2018-04-30T10:04:51.431Z,67.23
2018-04-30T10:05:51.338Z,68.01
2018-04-30T10:06:51.433Z,66.48
2018-04-30T10:07:51.458Z,67.39
2018-04-30T10:08:51.347Z,66.33
2018-04-30T10:09:51.458Z,65.83
2018-04-30T10:10:51.346Z,66.01
2018-04-30T10:11:51.396Z,66.53
2018-04-30T10:12:51.336Z,66.74
2018-04-30T10:13:51.360Z,64.02
2018-04-30T10:14:51.402Z,64.57
2018-04-30T10:15:51.505Z,64.95
2018-04-30T10:16:51.442Z,65.01
2018-04-30T10:17:51.503Z,64.23
2018-04-30T10:18:51.440Z,64.26
2018-04-30T10:19:51.443Z,64.62
2018-04-30T10:20:51.466Z,64.67
2018-04-30T10:21:51.406Z,64.93
2018-04-30T10:22:51.465Z,65.14
2018-04-30T10:23:51.474Z,65.01
2018-04-30T10:24:51.346Z,65.73
2018-04-30T10:25:51.368Z,65.78
2018-04-30T10:26:51.421Z,65.78
2018-04-30T10:27:51.476Z,66.27
2018-04-30T10:28:51.477Z,66.01
2018-04-30T10:29:51.443Z,65.94
2018-04-30T10:30:51.448Z,66.01
2018-04-30T10:31:51.434Z,65.78
2018-04-30T10:32:51.432Z,66.25
2018-04-30T10:33:51.371Z,66.06
2018-04-30T10:34:51.371Z,66.17
2018-04-30T10:35:51.483Z,66.64
2018-04-30T10:36:51.491Z,64.80
2018-04-30T10:37:51.551Z,66.25
2018-04-30T10:38:51.421Z,65.39
2018-04-30T10:39:51.428Z,64.05
2018-04-30T10:40:51.424Z,64.62
2018-04-30T10:41:51.364Z,64.10
2018-04-30T10:42:51.455Z,64.57
2018-04-30T10:43:51.498Z,65.01
2018-04-30T10:44:51.477Z,64.46
2018-04-30T10:45:51.475Z,63.92
2018-04-30T10:46:51.401Z,63.87
2018-04-30T10:47:51.381Z,63.49
2018-04-30T10:48:51.493Z,63.79
2018-04-30T10:49:51.465Z,63.87
2018-04-30T10:50:51.460Z,62.35
2018-04-30T10:51:51.465Z,61.99
2018-04-30T10:52:51.487Z,61.82
2018-04-30T10:53:51.465Z,63.30
2018-04-30T10:54:51.434Z,62.82
2018-04-30T10:55:51.489Z,62.77
2018-04-30T10:56:51.498Z,62.38
2018-04-30T10:57:51.502Z,61.22
2018-04-30T10:58:51.500Z,61.50
2018-04-30T10:59:51.407Z,62.50
2018-04-30T11:00:51.478Z,62.48
2018-04-30T11:01:51.417Z,60.35
2018-04-30T11:02:51.470Z,60.97
2018-04-30T11:03:51.375Z,60.78
2018-04-30T11:04:51.466Z,59.84
2018-04-30T11:05:51.378Z,59.22
2018-04-30T11:06:51.461Z,58.89
2018-04-30T11:07:51.465Z,59.68
2018-04-30T11:08:51.467Z,60.71
2018-04-30T11:09:51.462Z,60.45
2018-04-30T11:10:51.361Z,60.48
2018-04-30T11:11:51.407Z,61.22
2018-04-30T11:12:51.475Z,61.17
2018-04-30T11:13:51.412Z,61.76
2018-04-30T11:14:51.412Z,62.27
2018-04-30T11:15:51.484Z,61.84
2018-04-30T11:16:51.415Z,60.71
2018-04-30T11:17:51.482Z,60.63
2018-04-30T11:18:51.477Z,59.73
2018-04-30T11:19:51.483Z,59.09
2018-04-30T11:20:51.468Z,59.78
2018-04-30T11:21:51.414Z,60.25
2018-04-30T11:22:51.417Z,59.56
2018-04-30T11:23:51.480Z,60.09
2018-04-30T11:24:51.482Z,59.09
2018-04-30T11:25:51.414Z,59.92
2018-04-30T11:26:51.482Z,59.07
2018-04-30T11:27:51.454Z,59.94
2018-04-30T11:28:51.422Z,60.40
2018-04-30T11:29:51.421Z,61.02
2018-04-30T11:30:51.421Z,60.97
2018-04-30T11:31:51.481Z,61.63
2018-04-30T11:32:51.487Z,61.74
2018-04-30T11:33:51.516Z,61.50
2018-04-30T11:34:51.398Z,62.40
2018-04-30T11:35:51.459Z,63.15
2018-04-30T11:36:51.538Z,63.79
2018-04-30T11:37:51.469Z,63.77
2018-04-30T11:38:51.527Z,64.90
2018-04-30T11:39:51.494Z,64.85
2018-04-30T11:40:51.460Z,63.95
2018-04-30T11:41:51.425Z,64.31
2018-04-30T11:42:51.422Z,64.00
2018-04-30T11:43:51.499Z,62.71
2018-04-30T11:44:51.431Z,63.82
2018-04-30T11:45:51.498Z,64.44
2018-04-30T11:46:51.431Z,64.34
2018-04-30T11:47:51.500Z,64.62
2018-04-30T11:48:51.498Z,63.56
2018-04-30T11:49:51.429Z,62.40
2018-04-30T11:50:51.500Z,60.94
2018-04-30T11:51:51.433Z,60.43
2018-04-30T11:52:51.474Z,59.84
2018-04-30T11:53:51.482Z,57.89
2018-04-30T11:54:51.385Z,57.61
2018-04-30T11:55:51.453Z,58.40
2018-04-30T11:56:51.478Z,60.45
2018-04-30T11:57:51.430Z,59.48
2018-04-30T11:58:51.366Z,59.86
2018-04-30T11:59:51.401Z,59.73
2018-04-30T12:00:51.518Z,56.41
2018-04-30T12:01:51.442Z,55.35
2018-04-30T12:02:51.465Z,56.72
2018-04-30T12:03:51.448Z,57.30
2018-04-30T12:04:51.515Z,55.45
2018-04-30T12:05:51.534Z,55.78
2018-04-30T12:06:51.540Z,55.19
2018-04-30T12:07:51.413Z,54.56
2018-04-30T12:08:51.554Z,55.06
2018-04-30T12:09:51.538Z,53.75
2018-04-30T12:10:51.434Z,54.53
2018-04-30T12:11:51.497Z,53.26
2018-04-30T12:12:51.468Z,52.27
2018-04-30T12:13:51.399Z,52.35
2018-04-30T12:14:51.381Z,52.90
2018-04-30T12:15:51.400Z,52.60
2018-04-30T12:16:51.500Z,53.14
2018-04-30T12:17:51.452Z,54.25
2018-04-30T12:18:51.420Z,54.28
2018-04-30T12:19:51.519Z,52.83
2018-04-30T12:20:51.427Z,53.14
2018-04-30T12:21:51.500Z,52.78
2018-04-30T12:22:51.480Z,51.87
2018-04-30T12:23:51.538Z,53.21
2018-04-30T12:24:51.530Z,52.07
2018-04-30T12:25:51.538Z,53.01
2018-04-30T12:26:51.553Z,53.69
2018-04-30T12:27:51.500Z,52.20
2018-04-30T12:28:51.424Z,52.43
2018-04-30T12:29:51.627Z,50.63
2018-04-30T12:30:51.488Z,51.51
2018-04-30T12:31:51.555Z,53.23
2018-04-30T12:32:51.493Z,51.51
2018-04-30T12:33:51.504Z,51.46
2018-04-30T12:34:51.550Z,49.29
2018-04-30T12:35:51.493Z,49.47
2018-04-30T12:36:51.471Z,48.34
2018-04-30T12:37:51.457Z,50.05
2018-04-30T12:39:51.504Z,48.48
2018-04-30T12:40:51.553Z,49.44
2018-04-30T12:41:51.554Z,48.97
2018-04-30T12:42:51.567Z,49.19
2018-04-30T12:43:51.558Z,48.86
2018-04-30T12:44:51.561Z,49.55
2018-04-30T12:45:51.549Z,47.26
2018-04-30T12:46:51.554Z,48.36
2018-04-30T12:47:51.569Z,49.47
2018-04-30T12:48:51.461Z,48.61
2018-04-30T12:49:51.683Z,48.94
2018-04-30T12:50:51.585Z,48.94
2018-04-30T12:51:51.470Z,49.72
2018-04-30T12:52:51.495Z,51.29
2018-04-30T12:53:51.460Z,49.09